createdAt,value
2018-02-21T00:00:54.467Z,17.20
2018-02-21T00:01:54.515Z,17.50
2018-02-21T00:02:54.566Z,16.50
2018-02-21T00:03:54.619Z,16.90
2018-02-21T00:04:54.670Z,16.80
2018-02-21T00:05:54.723Z,17.70
2018-02-21T00:06:54.774Z,17.30
2018-02-21T00:07:54.827Z,17.10
2018-02-21T00:08:55.129Z,16.70
2018-02-21T00:09:54.930Z,17.10
2018-02-21T00:10:54.984Z,17.70
2018-02-21T00:11:55.038Z,18.10
2018-02-21T00:12:55.087Z,17.30
2018-02-21T00:13:55.139Z,18.20
2018-02-21T00:14:55.189Z,18.70
2018-02-21T00:15:55.243Z,17.40
2018-02-21T00:16:55.297Z,16.10
2018-02-21T00:17:55.347Z,17.30
2018-02-21T00:18:55.398Z,16.90
2018-02-21T00:19:55.450Z,16.60
2018-02-21T00:20:55.502Z,17.50
2018-02-21T00:21:55.554Z,17.10
2018-02-21T00:22:55.605Z,16.50
2018-02-21T00:23:55.659Z,16.60
2018-02-21T00:24:55.711Z,18.30
2018-02-21T00:25:55.761Z,15.90
2018-02-21T00:26:55.813Z,17.40
2018-02-21T00:27:55.866Z,17.60
2018-02-21T00:28:55.921Z,18.30
2018-02-21T00:29:55.969Z,16.80
2018-02-21T00:30:56.021Z,18.30
2018-02-21T00:31:56.072Z,17.10
2018-02-21T00:32:56.125Z,17.70
2018-02-21T00:33:56.178Z,17.20
2018-02-21T00:34:56.228Z,17.50
2018-02-21T00:35:56.282Z,18.00
2018-02-21T00:36:56.333Z,16.80
2018-02-21T00:37:56.384Z,16.50
2018-02-21T00:38:56.435Z,18.50
2018-02-21T00:39:56.489Z,17.20
2018-02-21T00:40:56.541Z,17.50
2018-02-21T00:41:56.592Z,17.30
2018-02-21T00:42:56.643Z,17.50
2018-02-21T00:43:56.696Z,19.00
2018-02-21T00:44:56.749Z,19.40
2018-02-21T00:45:56.800Z,18.50
2018-02-21T00:46:56.851Z,18.10
2018-02-21T00:47:56.904Z,18.60
2018-02-21T00:48:56.960Z,17.70
2018-02-21T00:49:57.007Z,17.00
2018-02-21T00:50:57.060Z,17.70
2018-02-21T00:51:57.112Z,17.30
2018-02-21T00:52:57.163Z,17.50
2018-02-21T00:53:57.220Z,17.70
2018-02-21T00:54:57.417Z,18.10
2018-02-21T00:55:57.323Z,17.60
2018-02-21T00:56:57.371Z,17.60
2018-02-21T00:57:57.424Z,18.80
2018-02-21T00:58:57.476Z,18.20
2018-02-21T00:59:57.527Z,17.90
2018-02-21T01:00:57.580Z,18.20
2018-02-21T01:01:57.631Z,18.00
2018-02-21T01:02:57.684Z,17.50
2018-02-21T01:03:57.736Z,17.70
2018-02-21T01:04:57.788Z,16.50
2018-02-21T01:05:57.842Z,18.00
2018-02-21T01:06:57.892Z,17.40
2018-02-21T01:07:57.945Z,17.80
2018-02-21T01:08:57.996Z,19.20
2018-02-21T01:09:58.049Z,16.70
2018-02-21T01:10:58.099Z,17.10
2018-02-21T01:11:58.152Z,15.90
2018-02-21T01:12:58.207Z,17.30
2018-02-21T01:13:58.256Z,17.40
2018-02-21T01:14:58.307Z,17.40
2018-02-21T01:15:58.361Z,18.40
2018-02-21T01:16:58.416Z,19.80
2018-02-21T01:17:58.465Z,19.70
2018-02-21T01:18:58.515Z,19.30
2018-02-21T01:19:58.570Z,19.00
2018-02-21T01:20:58.621Z,17.70
2018-02-21T01:21:58.673Z,16.80
2018-02-21T01:22:58.725Z,17.70
2018-02-21T01:23:58.778Z,19.70
2018-02-21T01:24:58.833Z,17.60
2018-02-21T01:25:58.885Z,17.00
2018-02-21T01:26:58.935Z,17.70
2018-02-21T01:27:58.986Z,18.80
2018-02-21T01:28:59.040Z,18.20
2018-02-21T01:29:59.093Z,18.20
2018-02-21T01:30:59.143Z,17.00
2018-02-21T01:31:59.195Z,17.70
2018-02-21T01:32:59.249Z,17.50
2018-02-21T01:33:59.302Z,18.20
2018-02-21T01:34:59.351Z,17.40
2018-02-21T01:35:59.404Z,17.40
2018-02-21T01:36:59.458Z,17.60
2018-02-21T01:37:59.510Z,18.40
2018-02-21T01:38:59.562Z,17.80
2018-02-21T01:39:59.616Z,18.90
2018-02-21T01:40:59.667Z,16.90
2018-02-21T01:41:59.718Z,17.90
2018-02-21T01:42:59.771Z,18.80
2018-02-21T01:43:59.822Z,18.20
2018-02-21T01:44:59.876Z,18.70
2018-02-21T01:45:59.929Z,19.20
2018-02-21T01:46:59.979Z,19.10
2018-02-21T01:48:00.034Z,18.40
2018-02-21T01:49:00.086Z,17.00
2018-02-21T01:50:00.138Z,18.00
2018-02-21T01:51:00.191Z,18.80
2018-02-21T01:52:00.245Z,19.20
2018-02-21T01:53:00.297Z,18.10
2018-02-21T01:54:00.351Z,19.90
2018-02-21T01:55:00.400Z,18.30
2018-02-21T01:56:00.452Z,19.20
2018-02-21T01:57:00.510Z,19.30
2018-02-21T01:58:00.558Z,18.10
2018-02-21T01:59:00.861Z,18.40
2018-02-21T02:00:00.665Z,19.30
2018-02-21T02:01:00.714Z,20.00
2018-02-21T02:02:00.768Z,21.10
2018-02-21T02:03:00.820Z,20.90
2018-02-21T02:04:00.873Z,20.50
2018-02-21T02:05:00.925Z,20.90
2018-02-21T02:06:00.982Z,21.60
2018-02-21T02:55:47.312Z,23.60
2018-02-21T02:56:47.163Z,22.30
2018-02-21T02:57:47.217Z,24.30
2018-02-21T02:58:47.270Z,23.80
2018-02-21T02:59:47.322Z,23.70
2018-02-21T03:00:47.375Z,24.40
2018-02-21T03:01:47.460Z,24.30
2018-02-21T03:02:47.492Z,24.70
2018-02-21T03:03:47.533Z,24.30
2018-02-21T03:04:47.587Z,23.90
2018-02-21T03:05:47.638Z,23.90
2018-02-21T03:06:47.692Z,24.90
2018-02-21T03:07:47.745Z,24.60
2018-02-21T03:08:47.796Z,24.00
2018-02-21T03:09:47.850Z,23.10
2018-02-21T03:10:47.902Z,23.40
2018-02-21T03:11:47.957Z,24.30
2018-02-21T03:12:48.008Z,24.10
2018-02-21T03:13:48.060Z,24.70
2018-02-21T03:14:48.112Z,24.70
2018-02-21T03:15:48.166Z,23.40
2018-02-21T03:16:48.218Z,24.50
2018-02-21T03:17:48.421Z,24.20
2018-02-21T03:18:48.323Z,24.40
2018-02-21T03:19:48.378Z,23.60
2018-02-21T03:20:48.429Z,23.50
2018-02-21T03:21:48.487Z,24.20
2018-02-21T03:22:48.536Z,25.70
2018-02-21T03:23:48.588Z,22.60
2018-02-21T03:24:48.643Z,25.80
2018-02-21T03:25:48.694Z,25.10
2018-02-21T03:26:48.748Z,24.80
2018-02-21T03:27:48.804Z,24.80
2018-02-21T03:28:48.852Z,25.50
2018-02-21T03:29:48.905Z,24.10
2018-02-21T03:30:48.960Z,24.30
2018-02-21T03:31:49.014Z,26.00
2018-02-21T03:32:49.061Z,24.40
2018-02-21T03:33:49.116Z,24.30
2018-02-21T03:34:49.168Z,25.40
2018-02-21T03:35:49.473Z,24.10
2018-02-21T03:36:49.274Z,24.90
2018-02-21T03:37:49.326Z,24.40
2018-02-21T03:38:49.379Z,25.10
2018-02-21T03:39:49.432Z,25.90
2018-02-21T03:40:49.484Z,25.10
2018-02-21T03:41:49.539Z,25.50
2018-02-21T03:42:49.590Z,24.80
2018-02-21T03:43:49.643Z,26.30
2018-02-21T03:44:49.693Z,25.20
2018-02-21T03:45:49.747Z,24.40
2018-02-21T03:46:50.001Z,25.00
2018-02-21T03:47:49.853Z,24.70
2018-02-21T03:48:49.905Z,24.80
2018-02-21T03:49:49.958Z,25.30
2018-02-21T03:50:50.011Z,27.20
2018-02-21T03:51:50.063Z,26.10
2018-02-21T03:52:50.117Z,24.30
2018-02-21T03:53:50.169Z,24.50
2018-02-21T03:54:50.221Z,24.70
2018-02-21T03:55:50.274Z,24.80
2018-02-21T03:56:50.326Z,23.60
2018-02-21T03:57:50.529Z,24.60
2018-02-21T03:58:50.433Z,26.00
2018-02-21T03:59:50.485Z,25.00
2018-02-21T04:00:50.539Z,24.50
2018-02-21T04:01:50.589Z,24.80
2018-02-21T04:02:50.643Z,25.00
2018-02-21T04:03:50.896Z,25.00
2018-02-21T04:04:50.748Z,25.70
2018-02-21T04:05:50.799Z,26.00
2018-02-21T04:06:50.852Z,25.90
2018-02-21T04:07:50.906Z,24.60
2018-02-21T04:08:50.957Z,25.90
2018-02-21T04:09:51.011Z,26.00
2018-02-21T04:10:51.072Z,26.70
2018-02-21T04:11:51.115Z,25.20
2018-02-21T04:12:51.167Z,25.20
2018-02-21T04:13:51.220Z,26.20
2018-02-21T04:14:51.272Z,25.70
2018-02-21T04:15:51.327Z,25.30
2018-02-21T04:16:51.379Z,24.80
2018-02-21T04:17:51.432Z,24.60
2018-02-21T04:18:51.483Z,24.70
2018-02-21T04:19:51.537Z,24.60
2018-02-21T04:20:51.589Z,24.50
2018-02-21T04:21:51.645Z,24.10
2018-02-21T04:22:51.696Z,25.10
2018-02-21T04:23:51.748Z,26.00
2018-02-21T04:24:51.800Z,25.00
2018-02-21T04:25:52.052Z,24.40
2018-02-21T04:26:51.905Z,23.20
2018-02-21T04:27:51.957Z,26.40
2018-02-21T04:28:52.009Z,24.30
2018-02-21T04:29:52.063Z,24.00
2018-02-21T04:30:52.114Z,25.10
2018-02-21T04:31:52.166Z,23.20
2018-02-21T04:32:52.218Z,24.20
2018-02-21T04:33:52.272Z,23.80
2018-02-21T04:34:52.326Z,22.80
2018-02-21T04:35:52.376Z,22.70
2018-02-21T04:36:52.431Z,22.40
2018-02-21T04:37:52.482Z,23.30
2018-02-21T04:38:52.534Z,25.60
2018-02-21T04:39:52.588Z,25.00
2018-02-21T04:40:52.639Z,26.30
2018-02-21T04:41:52.694Z,23.40
2018-02-21T04:42:52.896Z,25.00
2018-02-21T04:43:52.798Z,25.50
2018-02-21T04:44:52.852Z,25.70
2018-02-21T04:45:52.904Z,25.20
2018-02-21T04:46:52.956Z,25.20
2018-02-21T04:47:53.008Z,23.70
2018-02-21T04:48:53.059Z,25.50
2018-02-21T04:49:53.113Z,24.60
2018-02-21T04:50:53.165Z,25.70
2018-02-21T04:51:53.220Z,25.00
2018-02-21T04:52:53.269Z,24.50
2018-02-21T04:53:53.527Z,25.30
2018-02-21T04:54:53.374Z,23.40
2018-02-21T04:55:53.430Z,26.00
2018-02-21T04:56:53.479Z,24.70
2018-02-21T04:57:53.533Z,26.20
2018-02-21T04:58:53.786Z,25.70
2018-02-21T04:59:53.638Z,26.00
2018-02-21T05:00:53.690Z,24.30
2018-02-21T05:01:53.744Z,25.80
2018-02-21T05:02:53.795Z,25.20
2018-02-21T05:03:53.848Z,25.90
2018-02-21T05:04:54.100Z,24.40
2018-02-21T05:05:53.952Z,26.40
2018-02-21T05:06:54.005Z,25.60
2018-02-21T05:07:54.058Z,26.00
2018-02-21T05:08:54.110Z,25.10
2018-02-21T05:09:54.163Z,25.00
2018-02-21T05:10:54.615Z,25.30
2018-02-21T05:11:54.268Z,26.30
2018-02-21T05:12:54.320Z,26.00
2018-02-21T05:13:54.373Z,26.10
2018-02-21T05:14:54.425Z,26.70
2018-02-21T05:15:54.678Z,26.10
2018-02-21T05:16:54.532Z,26.00
2018-02-21T05:17:54.582Z,25.80
2018-02-21T05:18:54.635Z,26.90
2018-02-21T05:19:54.689Z,24.30
2018-02-21T05:20:54.739Z,26.40
2018-02-21T05:21:54.792Z,24.60
2018-02-21T05:22:54.845Z,25.50
2018-02-21T05:23:54.898Z,24.30
2018-02-21T05:24:54.949Z,26.40
2018-02-21T05:25:55.001Z,26.60
2018-02-21T05:26:55.306Z,24.70
2018-02-21T05:27:55.108Z,25.50
2018-02-21T05:28:55.161Z,25.10
2018-02-21T05:29:55.213Z,25.90
2018-02-21T05:30:55.265Z,25.10
2018-02-21T05:31:55.317Z,24.90
2018-02-21T05:32:55.570Z,24.20
2018-02-21T05:33:55.422Z,25.20
2018-02-21T05:34:55.476Z,24.70
2018-02-21T05:35:55.528Z,23.40
2018-02-21T05:36:55.580Z,26.00
2018-02-21T05:37:55.633Z,22.50
2018-02-21T05:38:55.688Z,25.90
2018-02-21T05:39:55.738Z,25.20
2018-02-21T05:40:55.790Z,25.10
2018-02-21T05:41:55.841Z,25.00
2018-02-21T05:42:55.895Z,25.60
2018-02-21T05:43:55.948Z,23.80
2018-02-21T05:44:55.999Z,24.90
2018-02-21T05:45:56.053Z,25.40
2018-02-21T05:46:56.105Z,25.40
2018-02-21T05:47:56.158Z,24.90
2018-02-21T05:48:56.210Z,25.40
2018-02-21T05:49:56.513Z,25.20
2018-02-21T05:50:56.318Z,25.20
2018-02-21T05:51:56.371Z,22.80
2018-02-21T05:52:56.420Z,24.00
2018-02-21T05:53:56.471Z,24.10
2018-02-21T05:54:56.524Z,25.80
2018-02-21T05:55:56.578Z,24.90
2018-02-21T05:56:56.630Z,25.70
2018-02-21T05:57:56.683Z,25.60
2018-02-21T05:58:56.736Z,24.00
2018-02-21T05:59:56.788Z,24.20
2018-02-21T06:00:56.902Z,24.50
2018-02-21T06:01:56.892Z,24.50
2018-02-21T06:02:57.445Z,25.40
2018-02-21T06:03:56.997Z,23.90
2018-02-21T06:04:57.050Z,24.40
2018-02-21T06:05:57.102Z,24.90
2018-02-21T06:06:57.157Z,24.10
2018-02-21T06:07:57.208Z,24.40
2018-02-21T06:08:57.261Z,25.30
2018-02-21T06:09:57.314Z,25.00
2018-02-21T06:10:57.366Z,25.60
2018-02-21T06:11:57.420Z,24.10
2018-02-21T06:12:57.487Z,24.70
2018-02-21T06:13:57.525Z,24.60
2018-02-21T06:14:57.578Z,24.90
2018-02-21T06:15:57.630Z,24.30
2018-02-21T06:16:57.839Z,23.90
2018-02-21T06:17:57.734Z,24.40
2018-02-21T06:18:57.789Z,24.90
2018-02-21T06:19:57.846Z,24.60
2018-02-21T06:20:57.893Z,25.00
2018-02-21T06:21:57.944Z,24.80
2018-02-21T06:22:57.997Z,24.30
2018-02-21T06:23:58.052Z,24.50
2018-02-21T06:24:58.106Z,25.60
2018-02-21T06:25:58.156Z,23.80
2018-02-21T06:26:58.266Z,24.80
2018-02-21T06:27:58.563Z,24.40
2018-02-21T06:28:58.314Z,26.30
2018-02-21T06:29:58.366Z,25.20
2018-02-21T06:30:58.420Z,25.80
2018-02-21T06:31:58.471Z,25.60
2018-02-21T06:32:58.524Z,25.20
2018-02-21T06:33:58.576Z,24.30
2018-02-21T06:34:59.051Z,24.90
2018-02-21T06:35:58.681Z,23.50
2018-02-21T06:36:58.734Z,24.50
2018-02-21T06:37:58.787Z,24.40
2018-02-21T06:38:58.839Z,23.50
2018-02-21T06:39:58.891Z,24.00
2018-02-21T06:40:58.943Z,23.60
2018-02-21T06:41:58.997Z,24.30
2018-02-21T06:42:59.048Z,25.90
2018-02-21T06:43:59.107Z,24.50
2018-02-21T06:44:59.153Z,24.80
2018-02-21T06:45:59.943Z,24.50
2018-02-21T06:46:59.259Z,23.90
2018-02-21T06:47:59.315Z,24.60
2018-02-21T06:48:59.363Z,23.90
2018-02-21T06:49:59.415Z,23.20
2018-02-21T06:50:59.470Z,24.60
2018-02-21T06:51:59.522Z,25.50
2018-02-21T06:52:59.573Z,24.00
2018-02-21T06:53:59.625Z,26.10
2018-02-21T06:54:59.677Z,24.80
2018-02-21T06:55:59.730Z,24.40
2018-02-21T06:56:59.932Z,24.90
2018-02-21T06:57:59.835Z,26.20
2018-02-21T06:58:59.887Z,24.20
2018-02-21T06:59:59.939Z,25.30
2018-02-21T07:00:59.996Z,24.80
2018-02-21T07:02:00.046Z,24.30
2018-02-21T07:03:00.098Z,23.40
2018-02-21T07:04:00.154Z,24.40
2018-02-21T07:05:00.202Z,24.30
2018-02-21T07:06:00.253Z,24.90
2018-02-21T07:07:00.307Z,23.50
2018-02-21T07:08:00.511Z,24.10
2018-02-21T07:09:00.410Z,24.10
2018-02-21T07:10:00.470Z,24.30
2018-02-21T07:11:00.516Z,24.30
2018-02-21T07:12:00.567Z,23.50
2018-02-21T07:13:00.621Z,25.10
2018-02-21T07:14:00.671Z,23.90
2018-02-21T07:15:00.728Z,26.40
2018-02-21T07:16:00.778Z,26.90
2018-02-21T07:17:00.828Z,25.20
2018-02-21T07:18:00.882Z,24.50
2018-02-21T07:19:01.082Z,26.30
2018-02-21T07:20:00.986Z,25.20
2018-02-21T07:21:01.035Z,25.70
2018-02-21T07:22:01.090Z,24.60
2018-02-21T07:23:01.144Z,24.10
2018-02-21T07:24:01.194Z,25.10
2018-02-21T07:25:01.256Z,24.90
2018-02-21T07:26:01.301Z,25.30
2018-02-21T07:27:01.351Z,23.90
2018-02-21T07:28:01.402Z,26.10
2018-02-21T07:29:01.453Z,26.30
2018-02-21T07:30:01.507Z,24.80
2018-02-21T07:31:01.559Z,25.40
2018-02-21T07:32:01.614Z,25.20
2018-02-21T07:33:01.663Z,26.00
2018-02-21T07:34:01.714Z,25.50
2018-02-21T07:35:02.843Z,24.20
2018-02-21T07:36:01.820Z,25.50
2018-02-21T07:37:01.871Z,23.60
2018-02-21T07:38:01.958Z,24.50
2018-02-21T07:39:01.976Z,25.10
2018-02-21T07:40:02.028Z,24.50
2018-02-21T07:41:02.078Z,25.30
2018-02-21T07:42:02.131Z,25.40
2018-02-21T07:43:02.186Z,24.30
2018-02-21T07:44:02.237Z,24.70
2018-02-21T07:45:02.288Z,23.90
2018-02-21T07:46:02.340Z,24.10
2018-02-21T07:47:02.394Z,24.80
2018-02-21T07:48:02.596Z,24.40
2018-02-21T07:49:02.506Z,24.00
2018-02-21T07:50:02.549Z,23.80
2018-02-21T07:51:02.658Z,24.10
2018-02-21T07:52:02.654Z,24.30
2018-02-21T07:53:02.707Z,24.50
2018-02-21T07:54:02.763Z,23.20
2018-02-21T07:55:02.812Z,23.70
2018-02-21T07:56:02.865Z,23.00
2018-02-21T07:57:02.917Z,25.40
2018-02-21T07:58:02.990Z,23.30
2018-02-21T07:59:03.221Z,24.80
2018-02-21T08:00:03.075Z,24.10
2018-02-21T08:01:03.167Z,25.10
2018-02-21T08:02:03.180Z,24.10
2018-02-21T08:03:03.271Z,24.00
2018-02-21T08:04:03.534Z,23.50
2018-02-21T08:05:03.390Z,24.10
2018-02-21T08:06:03.389Z,23.80
2018-02-21T08:07:03.443Z,23.70
2018-02-21T08:08:03.496Z,24.10
2018-02-21T08:09:03.548Z,24.90
2018-02-21T08:10:03.601Z,22.60
2018-02-21T08:11:03.654Z,21.60
2018-02-21T08:12:03.708Z,22.50
2018-02-21T08:13:03.763Z,23.70
2018-02-21T08:14:03.817Z,22.10
2018-02-21T08:15:03.866Z,24.10
2018-02-21T08:16:03.919Z,23.30
2018-02-21T08:17:03.971Z,23.00
2018-02-21T08:18:04.023Z,20.40
2018-02-21T08:19:04.078Z,21.10
2018-02-21T08:20:04.129Z,22.80
2018-02-21T08:21:04.183Z,22.30
2018-02-21T08:22:04.235Z,23.10
2018-02-21T08:23:04.288Z,24.00
2018-02-21T08:24:04.343Z,22.70
2018-02-21T08:25:04.396Z,22.30
2018-02-21T08:26:04.447Z,22.10
2018-02-21T08:27:04.753Z,23.60
2018-02-21T08:28:04.555Z,21.60
2018-02-21T08:29:04.608Z,21.10
2018-02-21T08:30:04.723Z,21.30
2018-02-21T08:31:04.715Z,22.80
2018-02-21T08:32:04.807Z,21.00
2018-02-21T08:33:04.859Z,21.80
2018-02-21T08:34:04.875Z,21.20
2018-02-21T08:35:04.929Z,20.20
2018-02-21T08:36:04.982Z,21.30
2018-02-21T08:37:05.035Z,21.20
2018-02-21T08:38:05.089Z,21.00
2018-02-21T08:39:05.142Z,21.50
2018-02-21T08:40:05.196Z,20.60
2018-02-21T08:41:05.250Z,21.80
2018-02-21T08:42:05.303Z,21.70
2018-02-21T08:43:05.357Z,21.10
2018-02-21T08:44:05.661Z,20.70
2018-02-21T08:45:05.463Z,21.20
2018-02-21T08:46:05.517Z,20.20
2018-02-21T08:47:05.572Z,20.40
2018-02-21T08:48:05.626Z,20.40
2018-02-21T08:49:05.679Z,21.90
2018-02-21T08:50:05.742Z,21.00
2018-02-21T08:51:05.789Z,20.70
2018-02-21T08:52:05.883Z,20.80
2018-02-21T08:53:05.895Z,20.70
2018-02-21T08:54:05.949Z,20.90
2018-02-21T08:55:06.644Z,21.40
2018-02-21T08:56:06.056Z,21.70
2018-02-21T08:57:06.111Z,20.30
2018-02-21T08:58:06.170Z,20.50
2018-02-21T08:59:06.218Z,22.40
2018-02-21T09:00:06.271Z,20.90
2018-02-21T09:01:06.477Z,20.70
2018-02-21T09:02:06.386Z,20.70
2018-02-21T09:03:06.795Z,20.20
2018-02-21T09:04:06.488Z,19.90
2018-02-21T09:05:06.544Z,21.70
2018-02-21T09:06:06.599Z,21.00
2018-02-21T09:07:06.653Z,20.70
2018-02-21T09:08:06.705Z,20.10
2018-02-21T09:09:06.774Z,19.70
2018-02-21T09:10:06.813Z,20.20
2018-02-21T09:11:06.869Z,20.70
2018-02-21T09:12:06.924Z,19.40
2018-02-21T09:13:07.503Z,20.00
2018-02-21T09:14:07.031Z,18.30
2018-02-21T09:15:07.085Z,18.30
2018-02-21T09:16:07.145Z,19.40
2018-02-21T09:17:07.192Z,20.30
2018-02-21T09:18:07.247Z,18.60
2018-02-21T09:19:07.303Z,20.00
2018-02-21T09:20:07.357Z,19.70
2018-02-21T09:21:07.409Z,18.50
2018-02-21T09:22:07.465Z,18.20
2018-02-21T09:23:07.519Z,15.00
2018-02-21T09:24:07.575Z,17.00
2018-02-21T09:25:07.713Z,18.80
2018-02-21T09:26:07.682Z,19.30
2018-02-21T09:27:07.742Z,18.30
2018-02-21T09:28:07.793Z,19.60
2018-02-21T09:29:07.899Z,18.80
2018-02-21T09:30:07.902Z,19.40
2018-02-21T09:31:08.206Z,18.50
2018-02-21T09:32:08.416Z,19.00
2018-02-21T09:33:08.479Z,18.90
2018-02-21T09:34:08.117Z,18.10
2018-02-21T09:35:08.174Z,18.20
2018-02-21T09:36:08.228Z,19.00
2018-02-21T09:37:08.531Z,18.60
2018-02-21T09:38:08.334Z,19.40
2018-02-21T09:39:08.427Z,19.20
2018-02-21T09:40:08.444Z,19.30
2018-02-21T09:41:08.498Z,19.00
2018-02-21T09:42:09.291Z,19.20
2018-02-21T09:43:09.472Z,20.30
2018-02-21T09:44:09.202Z,20.60
2018-02-21T09:45:09.258Z,19.80
2018-02-21T09:46:09.543Z,19.10
2018-02-21T09:47:09.669Z,18.60
2018-02-21T09:48:09.679Z,18.40
2018-02-21T09:49:09.520Z,18.40
2018-02-21T09:50:09.763Z,18.50
2018-02-21T09:51:09.711Z,19.20
2018-02-21T09:52:09.679Z,18.80
2018-02-21T09:53:10.352Z,18.20
2018-02-21T09:54:09.891Z,19.10
2018-02-21T09:55:09.333Z,18.40
2018-02-21T09:56:09.888Z,19.50
2018-02-21T09:57:09.871Z,19.20
2018-02-21T09:58:09.971Z,18.10
2018-02-21T09:59:10.596Z,18.60
2018-02-21T10:00:09.537Z,18.70
2018-02-21T10:01:09.591Z,18.80
2018-02-21T10:02:09.646Z,18.20
2018-02-21T10:03:09.700Z,18.80
2018-02-21T10:04:09.759Z,19.30
2018-02-21T10:05:09.809Z,18.20
2018-02-21T10:06:09.865Z,18.80
2018-02-21T10:07:09.920Z,19.10
2018-02-21T10:08:09.974Z,18.10
2018-02-21T10:09:10.031Z,19.00
2018-02-21T10:10:10.086Z,19.80
2018-02-21T10:11:10.141Z,18.60
2018-02-21T10:12:10.193Z,17.30
2018-02-21T10:13:10.250Z,17.90
2018-02-21T10:14:10.302Z,18.50
2018-02-21T10:15:10.397Z,18.10
2018-02-21T10:16:10.413Z,17.90
2018-02-21T10:17:10.468Z,19.80
2018-02-21T10:18:10.524Z,17.70
2018-02-21T10:19:10.578Z,19.00
2018-02-21T10:20:10.635Z,18.00
2018-02-21T10:21:10.686Z,17.80
2018-02-21T10:22:10.742Z,18.10
2018-02-21T10:23:10.797Z,17.70
2018-02-21T10:24:10.852Z,16.40
2018-02-21T10:25:10.928Z,18.00
2018-02-21T10:26:10.963Z,17.50
2018-02-21T10:27:11.017Z,18.10
2018-02-21T10:28:11.073Z,17.00
2018-02-21T10:29:11.138Z,18.60
2018-02-21T10:30:11.181Z,18.30
2018-02-21T10:31:11.237Z,18.10
2018-02-21T10:32:11.294Z,17.80
2018-02-21T10:33:11.345Z,15.20
2018-02-21T10:34:11.400Z,18.20
2018-02-21T10:35:11.456Z,18.80
2018-02-21T10:36:11.511Z,17.80
2018-02-21T10:37:11.566Z,18.10
2018-02-21T10:38:12.319Z,17.10
2018-02-21T10:39:12.436Z,18.30
2018-02-21T10:40:12.443Z,18.30
2018-02-21T10:41:11.786Z,17.70
2018-02-21T10:42:11.840Z,17.20
2018-02-21T10:43:11.896Z,17.60
2018-02-21T10:44:11.998Z,17.40
2018-02-21T10:45:12.006Z,18.30
2018-02-21T10:46:12.060Z,18.80
2018-02-21T10:47:12.116Z,17.70
2018-02-21T10:48:12.171Z,17.10
2018-02-21T10:49:12.225Z,16.20
2018-02-21T10:50:12.592Z,18.90
2018-02-21T10:51:12.339Z,18.80
2018-02-21T10:52:12.392Z,18.80
2018-02-21T10:53:12.446Z,18.00
2018-02-21T10:54:12.504Z,15.30
2018-02-21T10:55:12.604Z,17.10
2018-02-21T10:56:12.614Z,16.90
2018-02-21T10:57:12.667Z,13.30
2018-02-21T10:58:12.721Z,17.20
2018-02-21T10:59:12.776Z,16.30
2018-02-21T11:00:12.832Z,16.90
2018-02-21T11:01:12.887Z,17.40
2018-02-21T11:02:13.802Z,16.90
2018-02-21T11:03:12.998Z,17.40
2018-02-21T11:04:13.054Z,16.80
2018-02-21T11:05:13.107Z,17.70
2018-02-21T11:06:13.162Z,14.00
2018-02-21T11:07:13.219Z,16.70
2018-02-21T11:08:13.275Z,17.70
2018-02-21T11:09:13.360Z,17.90
2018-02-21T11:10:13.392Z,14.50
2018-02-21T11:11:13.439Z,16.80
2018-02-21T11:12:13.500Z,16.40
2018-02-21T11:13:13.548Z,17.70
2018-02-21T11:14:13.605Z,18.30
2018-02-21T11:15:13.660Z,17.10
2018-02-21T11:16:13.714Z,17.50
2018-02-21T11:17:13.770Z,19.00
2018-02-21T11:18:13.826Z,17.40
2018-02-21T11:19:13.881Z,17.20
2018-02-21T11:20:13.936Z,17.70
2018-02-21T11:21:13.990Z,19.30
2018-02-21T11:22:14.046Z,18.00
2018-02-21T11:23:14.102Z,16.90
2018-02-21T11:24:14.157Z,14.90
2018-02-21T11:25:14.211Z,17.30
2018-02-21T11:26:14.267Z,17.90
2018-02-21T11:27:14.322Z,17.40
2018-02-21T11:28:14.378Z,17.70
2018-02-21T11:29:14.439Z,17.20
2018-02-21T11:30:14.489Z,18.50
2018-02-21T11:31:14.544Z,17.50
2018-02-21T11:32:14.600Z,17.80
2018-02-21T11:33:14.654Z,17.60
2018-02-21T11:34:14.711Z,17.70
2018-02-21T11:35:14.769Z,17.40
2018-02-21T11:36:14.824Z,16.70
2018-02-21T11:37:14.880Z,16.80
2018-02-21T11:38:14.939Z,12.90
2018-02-21T11:39:14.999Z,17.40
2018-02-21T11:40:15.053Z,16.30
2018-02-21T11:41:15.108Z,16.70
2018-02-21T11:42:15.166Z,17.30
2018-02-21T11:43:15.225Z,17.00
2018-02-21T11:44:15.282Z,17.70
2018-02-21T11:45:15.340Z,16.80
2018-02-21T11:46:15.549Z,18.40
2018-02-21T11:47:15.457Z,17.80
2018-02-21T11:48:15.515Z,16.80
2018-02-21T11:49:15.574Z,17.90
2018-02-21T11:50:15.633Z,16.70
2018-02-21T11:51:15.696Z,16.90
2018-02-21T11:52:15.752Z,16.30
2018-02-21T11:53:15.809Z,17.10
2018-02-21T11:54:15.869Z,16.20
2018-02-21T11:55:15.929Z,16.80
2018-02-21T11:56:15.989Z,16.90
2018-02-21T11:57:16.430Z,16.70
2018-02-21T11:58:16.432Z,16.30
2018-02-21T11:59:16.167Z,15.60
2018-02-21T12:00:16.227Z,17.80
2018-02-21T12:01:16.287Z,17.30
2018-02-21T12:02:16.346Z,16.80
2018-02-21T12:03:16.407Z,17.50
2018-02-21T12:04:16.466Z,16.80
2018-02-21T12:05:16.855Z,15.10
2018-02-21T12:06:16.587Z,15.70
2018-02-21T12:07:16.647Z,17.20
2018-02-21T12:08:16.708Z,14.60
2018-02-21T12:09:16.765Z,16.30
2018-02-21T12:10:16.845Z,17.20
2018-02-21T12:11:16.887Z,16.20
2018-02-21T12:12:16.947Z,17.20
2018-02-21T12:13:17.006Z,16.30
2018-02-21T12:14:17.068Z,15.10
2018-02-21T12:15:17.126Z,15.50
2018-02-21T12:16:17.187Z,16.00
2018-02-21T12:17:17.247Z,16.80
2018-02-21T12:18:17.307Z,15.80
2018-02-21T12:19:17.367Z,15.90
2018-02-21T12:20:17.426Z,16.70
2018-02-21T12:21:17.486Z,17.30
2018-02-21T12:22:17.548Z,16.00
2018-02-21T12:23:17.606Z,16.80
2018-02-21T12:24:17.666Z,15.60
2018-02-21T12:25:17.980Z,15.60
2018-02-21T12:26:17.786Z,16.10
2018-02-21T12:27:17.847Z,16.60
2018-02-21T12:28:17.929Z,16.40
2018-02-21T12:29:17.968Z,17.30
2018-02-21T12:30:18.285Z,16.80
2018-02-21T12:31:18.401Z,16.30
2018-02-21T12:32:18.149Z,14.70
2018-02-21T12:33:18.227Z,15.90
2018-02-21T12:34:18.268Z,15.60
2018-02-21T12:35:18.336Z,15.10
2018-02-21T12:36:18.389Z,16.50
2018-02-21T12:37:18.451Z,15.90
2018-02-21T12:38:18.510Z,15.40
2018-02-21T12:39:18.570Z,16.00
2018-02-21T12:40:18.633Z,16.00
2018-02-21T12:41:18.690Z,16.30
2018-02-21T12:42:18.752Z,17.40
2018-02-21T12:43:18.812Z,15.90
2018-02-21T12:44:18.874Z,15.70
2018-02-21T12:45:18.936Z,14.40
2018-02-21T12:46:18.994Z,16.30
2018-02-21T12:47:19.055Z,15.10
2018-02-21T12:48:19.115Z,15.50
2018-02-21T12:49:19.175Z,15.00
2018-02-21T12:50:19.236Z,15.80
2018-02-21T12:51:19.296Z,16.50
2018-02-21T12:52:19.358Z,15.60
2018-02-21T12:53:19.418Z,16.40
2018-02-21T12:54:19.478Z,15.80
2018-02-21T12:55:19.539Z,15.80
2018-02-21T12:56:19.600Z,15.40
2018-02-21T12:57:19.665Z,15.10
2018-02-21T12:58:20.342Z,14.70
2018-02-21T12:59:19.786Z,15.90
2018-02-21T13:00:19.843Z,16.60
2018-02-21T13:01:19.904Z,16.60
2018-02-21T13:02:19.966Z,16.20
2018-02-21T13:03:20.026Z,15.00
2018-02-21T13:04:20.086Z,13.60
2018-02-21T13:05:20.148Z,15.40
2018-02-21T13:06:20.208Z,15.40
2018-02-21T13:07:20.270Z,16.40
2018-02-21T13:08:20.330Z,14.70
2018-02-21T13:09:20.394Z,16.60
2018-02-21T13:10:20.452Z,16.40
2018-02-21T13:11:20.515Z,15.80
2018-02-21T13:12:20.576Z,16.90
2018-02-21T13:13:20.635Z,17.50
2018-02-21T13:14:20.697Z,16.90
2018-02-21T13:15:20.759Z,16.80
2018-02-21T13:16:20.819Z,15.80
2018-02-21T13:17:20.879Z,16.90
2018-02-21T13:18:20.981Z,17.20
2018-02-21T13:19:21.697Z,16.30
2018-02-21T13:20:21.064Z,14.00
2018-02-21T13:21:21.171Z,15.90
2018-02-21T13:22:21.189Z,14.40
2018-02-21T13:23:21.247Z,15.60
2018-02-21T13:24:21.308Z,14.20
2018-02-21T13:25:21.368Z,16.60
2018-02-21T13:26:21.430Z,15.80
2018-02-21T13:27:21.490Z,15.70
2018-02-21T13:28:21.552Z,15.20
2018-02-21T13:29:21.613Z,16.50
2018-02-21T13:30:21.675Z,16.70
2018-02-21T13:31:22.069Z,14.70
2018-02-21T13:32:21.797Z,16.40
2018-02-21T13:33:21.858Z,17.00
2018-02-21T13:34:21.918Z,16.70
2018-02-21T13:35:21.981Z,16.30
2018-02-21T13:36:22.041Z,17.10
2018-02-21T13:37:22.103Z,14.60
2018-02-21T13:38:22.165Z,16.30
2018-02-21T13:39:22.224Z,17.20
2018-02-21T13:40:22.286Z,16.10
2018-02-21T13:41:22.347Z,15.90
2018-02-21T13:42:22.409Z,16.20